Kitscoty, Canada
Current Conditions -  °F | °C
As of 8:00 PM on Monday 22 Dec 2014 (Local Time) from CYLL Reporting Station
Overcast Overcast  
Wind Chill: 15°   Ceiling: 300
Heat Index: 25°   Visibility: 10mi
Dew Point: 25°   Wind: 10mph
Humidity: 100%   Direction: 310°NW
Pressure: 29.97"   Gusts: NA
Location:  53.34°N, 110.33°W
Report Text: CYLL 230300Z 31009KT 10SM OVC003 M04/M04 A2997 RMK ST8 SLP192
Loading
Personal Weather Stations






























Interactive Weather Map New forecast layout! Learn more

10-Day Weather Forecast

Advertisements
Track Severe Weather on mobile